Time;durP1;ratioP1;P1;durP2;ratioP2;P2;SDS_P1;SDS_P2;PMS_P1;PMS_P2;Temp;Humidity;BMP_temperature;BMP_pressure;BME280_temperature;BME280_humidity;BME280_pressure;Samples;Min_cycle;Max_cycle;Signal;HPM_P1;HPM_P2
2023/07/12 00:01:24;;;;;;;8.95;7.28;;;23.80;99.90;;;;;;5023213;28;20625;-93
2023/07/12 00:03:54;;;;;;;9.43;6.55;;;23.80;99.90;;;;;;5005650;28;20261;-92
2023/07/12 00:06:39;;;;;;;8.07;6.68;;;23.70;99.90;;;;;;5007840;28;20210;-93
2023/07/12 00:09:25;;;;;;;10.00;7.60;;;23.70;99.90;;;;;;5007013;28;20222;-94
2023/07/12 00:11:56;;;;;;;9.35;7.20;;;23.60;99.90;;;;;;5007711;28;20171;-96
2023/07/12 00:14:22;;;;;;;9.80;7.07;;;23.60;99.90;;;;;;5008306;28;20199;-96
2023/07/12 00:16:48;;;;;;;7.43;6.43;;;23.60;99.90;;;;;;5026933;28;20175;-95
2023/07/12 00:19:14;;;;;;;8.85;6.68;;;23.60;99.90;;;;;;5009926;28;20201;-96
2023/07/12 00:24:12;;;;;;;9.30;7.03;;;23.50;99.90;;;;;;4997415;28;20234;-92
2023/07/12 00:26:38;;;;;;;12.02;6.80;;;23.50;99.90;;;;;;4998331;28;20203;-92
2023/07/12 00:29:06;;;;;;;10.23;6.78;;;23.50;99.90;;;;;;4998261;28;20174;-92
2023/07/12 00:31:34;;;;;;;11.82;6.95;;;23.40;99.90;;;;;;4998220;28;20214;-92
2023/07/12 00:34:00;;;;;;;10.70;6.65;;;23.40;99.90;;;;;;4998289;28;20163;-91
2023/07/12 00:36:27;;;;;;;12.38;7.30;;;23.40;99.90;;;;;;4997985;28;20268;-92
2023/07/12 00:38:57;;;;;;;11.80;6.95;;;23.30;99.90;;;;;;4997765;28;20169;-92
2023/07/12 00:41:31;;;;;;;11.05;7.45;;;23.20;99.90;;;;;;4997461;28;20219;-92
2023/07/12 00:44:11;;;;;;;9.35;7.38;;;23.30;99.90;;;;;;4997243;28;20182;-93
2023/07/12 00:46:46;;;;;;;12.48;7.60;;;23.30;99.90;;;;;;4997794;28;20187;-91
2023/07/12 00:49:12;;;;;;;9.48;6.82;;;23.20;99.90;;;;;;4996872;28;20194;-92
2023/07/12 00:51:43;;;;;;;13.80;7.75;;;23.10;99.90;;;;;;4996977;28;20202;-92
2023/07/12 00:54:15;;;;;;;11.30;7.65;;;23.20;99.90;;;;;;4996953;28;20227;-92
2023/07/12 00:56:41;;;;;;;13.27;7.10;;;23.10;99.90;;;;;;4995490;28;20168;-92
2023/07/12 00:59:15;;;;;;;8.00;6.75;;;23.10;99.90;;;;;;4996763;28;20175;-92
2023/07/12 01:01:42;;;;;;;12.15;7.43;;;23.10;99.90;;;;;;4997313;28;20213;-92
2023/07/12 01:04:08;;;;;;;12.27;7.72;;;23.10;99.90;;;;;;4997075;28;20203;-92
2023/07/12 01:06:35;;;;;;;10.20;6.90;;;23.00;99.90;;;;;;4997114;28;20195;-92
2023/07/12 01:09:09;;;;;;;9.77;7.53;;;22.90;99.90;;;;;;4996861;28;20198;-92
2023/07/12 01:11:35;;;;;;;11.32;7.50;;;22.90;99.90;;;;;;4997416;28;20215;-92
2023/07/12 01:14:01;;;;;;;11.95;8.05;;;22.90;99.90;;;;;;4996584;28;20581;-93
2023/07/12 01:16:27;;;;;;;8.85;7.30;;;22.90;99.90;;;;;;4997214;28;20167;-92
2023/07/12 01:18:53;;;;;;;11.23;7.80;;;22.90;99.90;;;;;;4997002;28;20219;-92
2023/07/12 01:21:23;;;;;;;10.82;7.82;;;22.80;99.90;;;;;;4996522;28;20179;-92
2023/07/12 01:23:49;;;;;;;10.27;7.80;;;22.80;99.90;;;;;;4980139;28;20323;-92
2023/07/12 01:26:31;;;;;;;9.05;7.35;;;22.80;99.90;;;;;;4977337;28;20210;-92
2023/07/12 01:29:01;;;;;;;9.00;8.10;;;22.90;99.90;;;;;;4977316;28;20659;-92
2023/07/12 01:31:28;;;;;;;9.70;7.43;;;22.90;99.90;;;;;;4976827;28;20531;-92
2023/07/12 01:33:54;;;;;;;9.52;7.70;;;22.90;99.90;;;;;;4976888;28;20179;-91
2023/07/12 01:36:21;;;;;;;14.68;7.53;;;22.90;99.90;;;;;;4976616;28;20199;-92
2023/07/12 01:38:50;;;;;;;10.60;7.15;;;22.90;99.90;;;;;;4977340;28;20180;-92
2023/07/12 01:41:16;;;;;;;8.07;7.25;;;23.00;99.90;;;;;;4977181;28;20263;-92
2023/07/12 01:43:42;;;;;;;12.25;7.03;;;23.00;99.90;;;;;;4977236;28;20192;-92
2023/07/12 01:46:08;;;;;;;9.73;6.63;;;23.10;99.90;;;;;;4976936;28;20214;-92
2023/07/12 01:48:34;;;;;;;9.20;6.60;;;23.30;99.90;;;;;;4977292;28;20183;-92
2023/07/12 01:51:00;;;;;;;10.68;6.38;;;23.30;99.90;;;;;;4977176;28;20168;-92
2023/07/12 01:53:27;;;;;;;8.77;5.93;;;23.40;99.90;;;;;;4976659;28;20172;-92
2023/07/12 01:55:53;;;;;;;13.18;7.00;;;23.50;99.90;;;;;;4976803;28;20200;-92
2023/07/12 01:58:19;;;;;;;12.30;6.47;;;23.50;99.90;;;;;;4977031;28;20179;-91
2023/07/12 02:00:45;;;;;;;10.13;6.75;;;23.60;99.90;;;;;;4976911;28;20695;-92
2023/07/12 02:03:11;;;;;;;8.13;6.38;;;23.70;99.90;;;;;;4976992;28;20370;-91
2023/07/12 02:05:37;;;;;;;8.75;5.80;;;23.70;99.90;;;;;;4977152;28;20207;-92
2023/07/12 02:08:03;;;;;;;9.73;6.25;;;23.80;99.90;;;;;;4993937;28;20623;-92
2023/07/12 02:10:28;;;;;;;8.93;6.43;;;23.80;99.90;;;;;;4977111;28;20332;-94
2023/07/12 02:12:54;;;;;;;8.00;6.28;;;23.80;99.90;;;;;;4976967;28;20187;-93
2023/07/12 02:15:20;;;;;;;11.05;6.25;;;23.70;99.90;;;;;;4977123;28;20203;-92
2023/07/12 02:17:46;;;;;;;9.32;6.50;;;23.70;99.90;;;;;;4994266;28;20172;-92
2023/07/12 02:20:12;;;;;;;10.68;6.70;;;23.60;99.90;;;;;;4976774;28;20652;-92
2023/07/12 02:22:43;;;;;;;9.02;5.65;;;23.60;99.90;;;;;;4983827;28;20227;-92
2023/07/12 02:25:10;;;;;;;7.80;6.20;;;23.60;99.90;;;;;;4995793;28;20293;-92
2023/07/12 02:27:37;;;;;;;11.15;6.50;;;23.60;99.90;;;;;;4996049;28;20179;-92
2023/07/12 02:30:09;;;;;;;8.75;5.72;;;23.60;99.90;;;;;;4995931;28;20179;-93
2023/07/12 02:32:35;;;;;;;7.88;6.20;;;23.60;99.90;;;;;;4995892;28;20181;-92
2023/07/12 02:35:01;;;;;;;10.43;6.22;;;23.60;99.90;;;;;;4995873;28;20281;-93
2023/07/12 02:37:27;;;;;;;9.18;6.10;;;23.60;99.90;;;;;;4995701;28;20237;-92
2023/07/12 02:39:53;;;;;;;7.97;5.30;;;23.60;99.90;;;;;;4995926;28;20176;-92
2023/07/12 02:42:19;;;;;;;7.35;5.30;;;23.50;99.90;;;;;;4995780;28;20221;-91
2023/07/12 02:44:45;;;;;;;9.80;5.68;;;23.50;99.90;;;;;;4995764;28;20717;-92
2023/07/12 02:47:11;;;;;;;10.18;5.38;;;23.40;99.90;;;;;;4995260;28;20570;-93
2023/07/12 02:49:38;;;;;;;9.80;5.55;;;23.50;99.90;;;;;;4996633;28;20167;-93
2023/07/12 02:52:08;;;;;;;13.20;5.88;;;23.50;99.90;;;;;;4995803;28;20179;-93
2023/07/12 02:54:35;;;;;;;10.88;5.82;;;23.50;99.90;;;;;;4995603;28;20326;-92
2023/07/12 02:57:02;;;;;;;12.43;6.47;;;23.40;99.90;;;;;;4995823;28;20291;-92
2023/07/12 02:59:28;;;;;;;9.52;6.10;;;23.20;99.90;;;;;;4995578;28;20226;-92
2023/07/12 03:01:54;;;;;;;7.90;5.95;;;23.10;99.90;;;;;;4996523;28;20223;-92
2023/07/12 03:04:21;;;;;;;9.57;6.10;;;22.90;99.90;;;;;;4995841;28;20203;-92
2023/07/12 03:06:47;;;;;;;9.23;5.85;;;22.80;99.90;;;;;;4995819;28;20233;-93
2023/07/12 03:09:13;;;;;;;9.50;6.15;;;22.70;99.90;;;;;;4995688;28;20602;-91
2023/07/12 03:11:39;;;;;;;8.77;6.40;;;22.70;99.90;;;;;;4995078;28;20198;-91
2023/07/12 03:14:05;;;;;;;8.80;6.68;;;22.50;99.90;;;;;;4995542;28;20639;-91
2023/07/12 03:16:32;;;;;;;11.80;6.45;;;22.40;99.90;;;;;;4995453;28;20171;-92
2023/07/12 03:19:00;;;;;;;11.52;6.70;;;22.30;99.90;;;;;;4995654;28;20203;-93
2023/07/12 03:21:26;;;;;;;8.30;6.35;;;22.30;99.90;;;;;;4998700;28;20171;-92
2023/07/12 03:23:52;;;;;;;11.48;6.13;;;22.20;99.90;;;;;;4982082;28;20254;-92
2023/07/12 03:26:18;;;;;;;8.13;5.80;;;22.10;99.90;;;;;;4979924;28;20235;-92
2023/07/12 03:28:44;;;;;;;9.55;6.00;;;22.00;99.90;;;;;;4980076;28;20167;-92
2023/07/12 03:31:13;;;;;;;11.07;6.22;;;22.00;99.90;;;;;;4980036;28;20194;-93
2023/07/12 03:33:39;;;;;;;10.10;6.13;;;21.90;99.90;;;;;;4979711;28;20189;-92
2023/07/12 03:36:05;;;;;;;10.93;5.60;;;21.80;99.90;;;;;;4979901;28;20213;-92
2023/07/12 03:38:32;;;;;;;7.32;5.20;;;21.80;99.90;;;;;;4979965;28;20203;-93
2023/07/12 03:41:03;;;;;;;9.95;5.60;;;21.70;99.90;;;;;;4979951;28;20176;-91
2023/07/12 03:43:30;;;;;;;11.70;5.68;;;21.60;99.90;;;;;;4979710;28;20254;-92
2023/07/12 03:45:56;;;;;;;9.10;5.72;;;21.50;99.90;;;;;;4979300;28;20246;-92
2023/07/12 03:48:23;;;;;;;8.85;5.63;;;21.40;99.90;;;;;;4979598;28;20649;-92
2023/07/12 03:50:51;;;;;;;8.95;5.53;;;21.30;99.90;;;;;;4979462;28;20195;-92
2023/07/12 03:53:17;;;;;;;8.77;5.72;;;21.30;99.90;;;;;;4995823;28;20172;-92
2023/07/12 03:55:45;;;;;;;8.23;5.60;;;21.30;99.90;;;;;;4979400;28;20204;-92
2023/07/12 03:58:14;;;;;;;8.13;4.93;;;21.20;99.90;;;;;;4997248;28;20163;-92
2023/07/12 04:00:41;;;;;;;8.52;4.95;;;21.30;99.90;;;;;;4979175;28;20174;-92
2023/07/12 04:03:07;;;;;;;10.35;5.00;;;21.20;99.90;;;;;;4979539;28;20651;-93
2023/07/12 04:05:42;;;;;;;8.65;5.07;;;21.20;99.90;;;;;;4979206;28;20239;-92
2023/07/12 04:08:11;;;;;;;8.57;5.57;;;21.10;99.90;;;;;;4979178;28;20175;-93
2023/07/12 04:10:38;;;;;;;8.25;5.03;;;21.10;99.90;;;;;;4979096;28;20168;-93
2023/07/12 04:13:04;;;;;;;5.65;4.22;;;21.00;99.90;;;;;;4979130;28;20180;-92
2023/07/12 04:15:31;;;;;;;6.28;4.40;;;21.00;99.90;;;;;;4979508;28;20204;-92
2023/07/12 04:17:57;;;;;;;8.02;5.10;;;21.00;99.90;;;;;;4996486;28;20168;-92
2023/07/12 04:20:23;;;;;;;7.13;4.90;;;20.90;99.90;;;;;;4978826;28;20677;-91
2023/07/12 04:22:50;;;;;;;8.75;4.70;;;20.90;99.90;;;;;;4987356;28;20262;-93
2023/07/12 04:25:16;;;;;;;8.57;4.85;;;20.80;99.90;;;;;;4998943;28;20211;-91
2023/07/12 04:27:42;;;;;;;6.75;4.43;;;20.70;99.90;;;;;;4998439;28;20175;-92
2023/07/12 04:30:11;;;;;;;7.00;4.30;;;20.70;99.90;;;;;;4998305;28;20175;-92
2023/07/12 04:32:41;;;;;;;7.03;4.40;;;20.70;99.90;;;;;;4997967;28;20270;-92
2023/07/12 04:35:07;;;;;;;6.65;4.10;;;20.60;99.90;;;;;;4998513;28;20233;-92
2023/07/12 04:37:34;;;;;;;8.65;3.92;;;20.60;99.90;;;;;;4997999;28;20207;-92
2023/07/12 04:40:00;;;;;;;6.65;3.67;;;20.70;99.90;;;;;;4997523;28;20230;-93
2023/07/12 04:42:26;;;;;;;6.68;3.53;;;20.60;99.90;;;;;;4998001;28;20187;-92
2023/07/12 04:44:52;;;;;;;7.47;4.15;;;20.60;99.90;;;;;;4998009;28;20203;-93
2023/07/12 04:47:18;;;;;;;9.15;4.07;;;20.60;99.90;;;;;;4997797;28;20199;-92
2023/07/12 04:49:44;;;;;;;6.55;3.65;;;20.70;99.90;;;;;;4997749;28;20176;-93
2023/07/12 04:52:11;;;;;;;4.88;3.38;;;20.70;99.90;;;;;;4997867;28;20175;-91
2023/07/12 04:54:42;;;;;;;6.50;3.63;;;20.80;99.90;;;;;;4997911;28;20214;-92
2023/07/12 04:57:09;;;;;;;5.35;3.10;;;20.80;99.90;;;;;;4998018;28;20286;-93
2023/07/12 04:59:35;;;;;;;3.00;2.67;;;20.80;99.90;;;;;;4998260;28;20222;-92
2023/07/12 05:02:01;;;;;;;5.43;2.75;;;20.90;99.90;;;;;;4997706;28;20199;-92
2023/07/12 05:04:27;;;;;;;5.68;2.95;;;20.90;99.90;;;;;;4998189;28;20234;-93
2023/07/12 05:06:53;;;;;;;7.25;3.13;;;21.00;99.90;;;;;;4997970;28;20199;-92
2023/07/12 05:09:20;;;;;;;3.30;2.65;;;21.00;99.90;;;;;;4997969;28;20172;-92
2023/07/12 05:11:49;;;;;;;4.80;2.80;;;21.00;99.90;;;;;;4998121;28;20168;-91
2023/07/12 05:14:16;;;;;;;8.63;2.72;;;21.00;99.90;;;;;;5000332;28;20298;-95
2023/07/12 05:16:42;;;;;;;4.35;2.63;;;20.90;99.90;;;;;;5004120;28;20180;-95
2023/07/12 05:19:08;;;;;;;6.93;3.10;;;20.90;99.90;;;;;;5003640;28;20182;-94
2023/07/12 05:21:35;;;;;;;4.93;2.40;;;20.80;99.90;;;;;;4998819;28;20178;-94
2023/07/12 05:24:00;;;;;;;5.53;2.75;;;20.80;99.90;;;;;;4998968;28;20218;-94
2023/07/12 05:26:26;;;;;;;4.68;2.53;;;20.90;99.90;;;;;;4999270;28;20290;-94
2023/07/12 05:28:53;;;;;;;5.07;2.63;;;20.80;99.90;;;;;;4999367;28;20167;-95
2023/07/12 05:31:18;;;;;;;7.10;2.50;;;20.90;99.90;;;;;;4998712;28;20168;-94
2023/07/12 05:33:47;;;;;;;3.80;2.20;;;21.00;99.90;;;;;;4998376;28;20210;-94
2023/07/12 05:36:15;;;;;;;6.88;2.40;;;21.00;99.90;;;;;;4999420;28;20163;-94
2023/07/12 05:38:41;;;;;;;3.72;2.30;;;21.00;99.90;;;;;;4998724;28;20254;-93
2023/07/12 05:41:10;;;;;;;5.60;2.17;;;20.90;99.90;;;;;;4998032;28;20284;-95
2023/07/12 05:43:36;;;;;;;4.85;2.20;;;20.90;99.90;;;;;;4998008;28;20242;-95
2023/07/12 05:46:03;;;;;;;6.43;2.10;;;20.80;99.90;;;;;;4997682;28;20329;-93
2023/07/12 05:48:29;;;;;;;6.75;2.33;;;20.80;99.90;;;;;;4997132;28;20171;-94
2023/07/12 05:50:58;;;;;;;4.88;2.30;;;20.70;99.90;;;;;;4997116;28;20233;-96
2023/07/12 05:53:24;;;;;;;6.75;2.55;;;20.60;99.90;;;;;;4996778;28;20171;-94
2023/07/12 05:55:58;;;;;;;6.35;2.17;;;20.60;99.90;;;;;;4996918;28;20209;-92
2023/07/12 05:58:24;;;;;;;4.90;2.58;;;20.60;99.90;;;;;;4996775;28;20721;-94
2023/07/12 06:01:00;;;;;;;5.25;2.30;;;20.60;99.90;;;;;;4996672;28;20539;-92
2023/07/12 06:03:30;;;;;;;5.05;2.40;;;20.60;99.90;;;;;;4995816;28;20179;-94
2023/07/12 06:05:56;;;;;;;3.75;2.05;;;20.70;99.90;;;;;;4996580;28;20218;-93
2023/07/12 06:08:24;;;;;;;3.95;2.20;;;20.70;99.90;;;;;;4996495;28;20171;-93
2023/07/12 06:10:50;;;;;;;3.38;2.25;;;20.90;99.90;;;;;;4996614;28;20262;-92
2023/07/12 06:13:16;;;;;;;4.03;2.17;;;20.90;99.90;;;;;;4996558;28;20594;-93
2023/07/12 06:15:42;;;;;;;2.50;2.10;;;20.90;99.90;;;;;;4996514;28;20873;-93
2023/07/12 06:18:08;;;;;;;3.50;2.38;;;20.80;99.90;;;;;;4996477;28;20307;-94
2023/07/12 06:20:33;;;;;;;4.88;2.50;;;20.80;99.90;;;;;;4996766;28;20183;-93
2023/07/12 06:22:59;;;;;;;8.10;2.00;;;20.80;99.90;;;;;;4996277;28;20273;-92
2023/07/12 06:25:26;;;;;;;4.35;1.70;;;20.80;99.90;;;;;;4996595;28;20214;-93
2023/07/12 06:27:52;;;;;;;2.95;1.65;;;20.90;99.90;;;;;;4996586;28;20674;-94
2023/07/12 06:30:19;;;;;;;4.57;2.22;;;20.90;99.90;;;;;;4996434;28;20184;-93
2023/07/12 06:32:45;;;;;;;3.92;1.73;;;21.10;99.90;;;;;;4996588;28;20167;-92
2023/07/12 06:35:10;;;;;;;3.88;1.85;;;21.20;99.90;;;;;;4996187;28;20667;-94
2023/07/12 06:37:36;;;;;;;2.63;1.60;;;21.30;99.90;;;;;;4996433;28;20190;-94
2023/07/12 06:40:02;;;;;;;2.92;1.48;;;21.40;99.90;;;;;;4998558;28;20642;-91
2023/07/12 06:42:28;;;;;;;3.72;1.50;;;21.50;99.90;;;;;;4999259;28;20192;-93
2023/07/12 06:44:54;;;;;;;3.08;1.40;;;21.50;99.90;;;;;;4978053;28;20196;-93
2023/07/12 06:47:20;;;;;;;3.97;1.20;;;21.50;99.90;;;;;;4976675;28;20199;-93
2023/07/12 06:49:46;;;;;;;1.55;1.10;;;21.50;99.90;;;;;;4976554;28;20167;-91
2023/07/12 06:52:12;;;;;;;6.85;1.65;;;21.40;99.90;;;;;;4976714;28;20172;-92
2023/07/12 06:54:37;;;;;;;8.60;1.58;;;21.40;99.90;;;;;;4978216;28;20258;-93
2023/07/12 06:57:04;;;;;;;3.60;1.45;;;21.40;99.90;;;;;;4976363;28;20168;-93
2023/07/12 06:59:30;;;;;;;3.25;1.10;;;21.30;99.90;;;;;;4976369;28;20263;-93
2023/07/12 07:01:56;;;;;;;2.85;1.20;;;21.30;99.90;;;;;;4976423;28;20172;-94
2023/07/12 07:04:22;;;;;;;5.53;1.20;;;21.30;99.90;;;;;;4976296;28;20259;-91
2023/07/12 07:06:47;;;;;;;2.60;1.08;;;21.40;99.90;;;;;;4976828;28;20211;-94
2023/07/12 07:09:13;;;;;;;3.75;1.48;;;21.60;99.90;;;;;;4976462;28;20570;-92
2023/07/12 07:11:39;;;;;;;3.15;0.90;;;21.60;99.90;;;;;;4976377;28;20226;-93
2023/07/12 07:14:05;;;;;;;1.73;0.95;;;21.70;99.90;;;;;;4975855;28;20616;-93
2023/07/12 07:16:32;;;;;;;1.20;1.00;;;21.90;99.90;;;;;;4976404;28;20168;-93
2023/07/12 07:18:58;;;;;;;3.25;0.93;;;22.20;99.90;;;;;;4976291;28;20200;-92
2023/07/12 07:21:25;;;;;;;3.53;1.20;;;22.40;99.90;;;;;;4976343;28;20644;-92
2023/07/12 07:23:51;;;;;;;3.80;1.13;;;22.70;99.90;;;;;;4976122;28;20719;-94
2023/07/12 07:26:17;;;;;;;1.45;0.98;;;22.90;99.90;;;;;;4976238;28;20211;-91
2023/07/12 07:28:43;;;;;;;9.02;2.50;;;23.10;99.90;;;;;;4976597;28;20276;-94
2023/07/12 07:31:09;;;;;;;2.95;1.10;;;23.20;99.90;;;;;;4976294;28;20168;-94
2023/07/12 07:33:38;;;;;;;2.30;1.17;;;23.40;99.90;;;;;;4976205;28;20217;-94
2023/07/12 07:36:08;;;;;;;2.95;1.00;;;23.40;99.90;;;;;;4976396;28;20243;-96
2023/07/12 07:38:37;;;;;;;1.80;1.00;;;23.40;99.90;;;;;;4976271;28;20226;-93
2023/07/12 07:41:09;;;;;;;5.40;1.10;;;23.30;99.90;;;;;;4976285;28;20554;-92
2023/07/12 07:43:36;;;;;;;2.92;0.98;;;23.40;99.90;;;;;;4976146;28;20646;-94
2023/07/12 07:46:06;;;;;;;4.45;0.98;;;23.70;99.90;;;;;;4976519;28;20278;-96
2023/07/12 07:48:34;;;;;;;3.00;0.88;;;23.80;99.90;;;;;;4976604;28;20203;-94
2023/07/12 07:51:01;;;;;;;2.10;0.90;;;23.80;99.90;;;;;;4976197;28;20620;-93
2023/07/12 07:53:26;;;;;;;1.38;0.73;;;23.90;99.90;;;;;;4976308;28;20180;-92
2023/07/12 07:56:00;;;;;;;2.17;1.00;;;24.00;99.90;;;;;;4977042;28;20206;-96
2023/07/12 07:58:26;;;;;;;1.23;0.80;;;24.00;99.90;;;;;;4976872;28;20231;-93
2023/07/12 08:00:52;;;;;;;1.50;0.80;;;24.00;99.90;;;;;;4977680;28;20183;-96
2023/07/12 08:03:18;;;;;;;2.72;0.63;;;24.10;98.60;;;;;;4976627;28;20179;-93
2023/07/12 08:05:45;;;;;;;1.75;0.60;;;24.00;99.90;;;;;;4976980;28;20220;-96
2023/07/12 08:08:12;;;;;;;1.80;0.90;;;24.10;99.90;;;;;;4980360;28;20171;-94
2023/07/12 08:10:38;;;;;;;1.85;0.80;;;24.10;99.20;;;;;;4980274;28;20179;-94
2023/07/12 08:13:03;;;;;;;2.47;0.80;;;24.10;99.90;;;;;;4987912;28;20183;-96
2023/07/12 08:15:29;;;;;;;0.90;0.60;;;24.20;99.90;;;;;;5000079;28;20210;-95
2023/07/12 08:17:55;;;;;;;2.83;0.60;;;24.40;99.90;;;;;;5000572;28;20262;-95
2023/07/12 08:20:22;;;;;;;4.57;0.68;;;24.40;99.80;;;;;;5000616;28;20218;-94
2023/07/12 08:22:48;;;;;;;3.67;1.02;;;24.40;98.90;;;;;;4991815;28;20223;-93
2023/07/12 08:25:15;;;;;;;1.05;0.63;;;24.40;99.40;;;;;;4979619;28;20206;-94
2023/07/12 08:27:41;;;;;;;1.52;0.70;;;24.50;99.60;;;;;;4995967;28;20172;-93
2023/07/12 08:30:08;;;;;;;4.55;0.70;;;24.60;97.40;;;;;;4980026;28;20180;-95
2023/07/12 08:32:34;;;;;;;3.95;0.80;;;24.60;97.10;;;;;;4979664;28;20175;-93
2023/07/12 08:35:00;;;;;;;0.60;0.52;;;24.50;97.60;;;;;;4979776;28;20192;-94
2023/07/12 08:37:27;;;;;;;33.20;10.18;;;24.50;96.70;;;;;;4979334;28;20179;-92
2023/07/12 08:39:53;;;;;;;1.90;1.10;;;24.50;96.70;;;;;;4995749;28;20187;-92
2023/07/12 08:42:34;;;;;;;4.60;1.98;;;24.50;97.60;;;;;;4979714;28;20211;-95
2023/07/12 08:45:03;;;;;;;3.15;1.10;;;24.60;96.20;;;;;;4979215;28;20212;-93
2023/07/12 08:47:37;;;;;;;2.00;0.80;;;24.60;97.40;;;;;;4979397;28;20207;-94
2023/07/12 08:50:16;;;;;;;2.80;0.80;;;24.70;96.50;;;;;;4979047;28;20176;-93
2023/07/12 08:52:44;;;;;;;2.20;0.80;;;24.60;97.20;;;;;;4979166;28;20172;-96
2023/07/12 08:55:22;;;;;;;2.55;0.65;;;24.60;96.10;;;;;;4979399;28;20192;-95
2023/07/12 08:58:03;;;;;;;3.55;0.70;;;24.60;96.70;;;;;;4979044;28;20586;-94
2023/07/12 09:00:34;;;;;;;1.65;0.82;;;24.60;96.90;;;;;;4979263;28;20176;-93
2023/07/12 09:03:00;;;;;;;4.25;0.77;;;24.50;96.70;;;;;;4978936;28;20246;-92
2023/07/12 09:05:28;;;;;;;1.60;0.90;;;24.20;97.00;;;;;;4978430;28;20278;-94
2023/07/12 09:08:20;;;;;;;1.25;0.68;;;23.90;97.40;;;;;;4978959;28;20172;-93
2023/07/12 09:10:50;;;;;;;2.97;0.80;;;23.50;97.30;;;;;;4978886;28;20180;-92
2023/07/12 09:13:17;;;;;;;1.58;0.75;;;23.20;98.00;;;;;;4978851;28;20657;-93
2023/07/12 09:15:50;;;;;;;1.70;0.80;;;23.20;97.60;;;;;;4978662;28;20211;-93
2023/07/12 09:18:32;;;;;;;1.10;0.70;;;23.20;98.10;;;;;;4977282;28;20172;-92
2023/07/12 09:21:09;;;;;;;0.88;0.68;;;23.30;99.60;;;;;;4978427;28;20176;-93
2023/07/12 09:23:40;;;;;;;3.45;0.90;;;23.50;98.50;;;;;;4978227;28;20258;-92
2023/07/12 09:26:36;;;;;;;1.58;0.65;;;23.40;99.70;;;;;;4978260;28;20303;-92
2023/07/12 09:29:12;;;;;;;1.05;0.70;;;23.30;99.70;;;;;;4958172;28;20191;-92
2023/07/12 09:31:40;;;;;;;1.27;0.80;;;23.20;99.40;;;;;;4978657;28;20172;-95
2023/07/12 09:34:17;;;;;;;2.10;0.90;;;23.00;99.40;;;;;;4978443;28;20172;-93
2023/07/12 09:36:43;;;;;;;6.97;0.90;;;22.80;99.90;;;;;;4978353;28;20175;-94
2023/07/12 09:39:11;;;;;;;4.13;0.70;;;22.80;99.90;;;;;;4978746;28;20278;-95
2023/07/12 09:41:50;;;;;;;3.13;0.80;;;22.80;99.70;;;;;;4978276;28;20668;-92
2023/07/12 09:44:16;;;;;;;2.13;1.02;;;22.70;99.90;;;;;;4977676;28;20553;-93
2023/07/12 09:46:42;;;;;;;2.50;0.80;;;22.90;99.90;;;;;;4978250;28;20210;-94
2023/07/12 09:49:16;;;;;;;2.22;0.80;;;23.20;99.90;;;;;;4994243;28;20183;-92
2023/07/12 09:52:05;;;;;;;6.70;0.70;;;23.20;99.30;;;;;;4978423;28;20259;-94
2023/07/12 09:54:49;;;;;;;1.13;0.70;;;23.20;99.40;;;;;;4977409;28;20210;-92
2023/07/12 09:58:03;;;;;;;2.58;0.75;;;23.10;99.90;;;;;;4994128;28;20176;-92
2023/07/12 10:00:41;;;;;;;1.42;0.73;;;23.10;99.90;;;;;;4961439;28;20225;-93
2023/07/12 10:03:42;;;;;;;1.23;0.80;;;23.00;99.70;;;;;;4977908;28;20191;-91
2023/07/12 10:06:31;;;;;;;2.92;0.80;;;23.00;99.90;;;;;;4937227;28;20674;-92
2023/07/12 10:09:24;;;;;;;4.82;1.17;;;23.20;99.90;;;;;;4977727;28;20188;-92
2023/07/12 10:12:19;;;;;;;1.77;0.73;;;23.40;99.90;;;;;;4977146;28;20175;-92
2023/07/12 10:14:45;;;;;;;1.92;0.82;;;23.40;99.90;;;;;;4961058;28;20211;-92
2023/07/12 10:17:36;;;;;;;1.63;1.00;;;23.40;99.90;;;;;;4978035;28;20176;-93
2023/07/12 10:20:02;;;;;;;7.53;1.30;;;23.30;99.90;;;;;;4977792;28;20218;-91
2023/07/12 10:22:40;;;;;;;1.63;1.20;;;23.50;99.90;;;;;;4983040;28;20223;-92
2023/07/12 10:25:28;;;;;;;3.55;1.40;;;23.80;99.90;;;;;;4981328;28;20199;-91
2023/07/12 10:28:06;;;;;;;2.15;1.40;;;24.10;99.70;;;;;;4996766;28;20195;-93
2023/07/12 10:30:33;;;;;;;1.80;1.20;;;24.00;99.50;;;;;;4996771;28;20190;-92
2023/07/12 10:33:12;;;;;;;1.60;1.42;;;23.90;99.90;;;;;;4997346;28;20217;-92
2023/07/12 10:35:59;;;;;;;2.45;1.40;;;23.90;99.50;;;;;;4996588;28;20211;-91
2023/07/12 10:38:25;;;;;;;4.30;1.60;;;24.00;99.90;;;;;;4996845;28;20257;-93
2023/07/12 10:41:00;;;;;;;1.63;1.45;;;24.10;99.90;;;;;;4996927;28;20175;-93
2023/07/12 10:43:59;;;;;;;2.40;1.65;;;24.20;98.80;;;;;;4996440;28;20182;-91
2023/07/12 10:46:33;;;;;;;1.90;1.40;;;24.40;99.90;;;;;;4996113;28;20195;-92
2023/07/12 10:49:03;;;;;;;4.25;1.60;;;24.40;98.90;;;;;;4996867;28;20225;-92
2023/07/12 10:51:38;;;;;;;2.38;1.45;;;24.40;98.80;;;;;;4996031;28;20605;-93
2023/07/12 10:54:21;;;;;;;4.65;1.58;;;24.60;99.50;;;;;;4996348;28;20257;-92
2023/07/12 10:56:53;;;;;;;8.65;1.40;;;24.50;97.90;;;;;;4996342;28;20175;-91
2023/07/12 10:59:31;;;;;;;2.85;1.42;;;24.10;98.40;;;;;;4996428;28;20218;-93
2023/07/12 11:02:21;;;;;;;2.20;1.38;;;24.20;99.90;;;;;;4996620;28;20215;-93
2023/07/12 11:04:49;;;;;;;1.67;1.25;;;24.50;99.80;;;;;;4996382;28;20218;-93
2023/07/12 11:07:14;;;;;;;1.73;1.20;;;24.80;99.90;;;;;;4996075;28;20222;-92
2023/07/12 11:09:47;;;;;;;1.73;1.10;;;25.00;99.80;;;;;;4996145;28;20227;-91
2023/07/12 11:12:15;;;;;;;2.13;1.20;;;25.20;99.10;;;;;;4996291;28;20582;-92
2023/07/12 11:14:43;;;;;;;3.08;0.90;;;25.30;98.70;;;;;;4996359;28;20195;-93
2023/07/12 11:17:28;;;;;;;2.90;1.20;;;25.50;99.10;;;;;;4996033;28;20171;-92
2023/07/12 11:20:08;;;;;;;1.10;1.00;;;25.40;97.80;;;;;;4996075;28;20190;-92
2023/07/12 11:22:54;;;;;;;1.08;0.90;;;25.00;97.30;;;;;;4995773;28;20223;-92
2023/07/12 11:25:27;;;;;;;1.45;0.90;;;24.80;98.20;;;;;;4996404;28;20249;-91
2023/07/12 11:27:55;;;;;;;2.70;1.00;;;24.50;97.70;;;;;;4995905;28;20182;-92
2023/07/12 11:30:37;;;;;;;5.40;1.48;;;24.70;99.00;;;;;;4980186;28;20293;-92
2023/07/12 11:33:21;;;;;;;3.15;1.20;;;24.90;98.00;;;;;;4995901;28;20186;-94
2023/07/12 11:35:53;;;;;;;1.02;0.90;;;24.90;98.20;;;;;;4995621;28;20265;-96
2023/07/12 11:38:25;;;;;;;0.70;0.70;;;24.80;96.40;;;;;;4995768;28;20181;-94
2023/07/12 11:40:54;;;;;;;2.67;1.10;;;24.50;97.50;;;;;;4996989;28;20214;-93
2023/07/12 11:43:23;;;;;;;2.03;0.98;;;24.80;98.30;;;;;;5000275;28;20187;-91
2023/07/12 11:45:56;;;;;;;1.30;1.00;;;25.00;96.30;;;;;;5000195;28;20207;-93
2023/07/12 11:48:24;;;;;;;1.67;0.90;;;24.90;95.90;;;;;;4999680;28;20175;-92
2023/07/12 11:50:52;;;;;;;2.67;1.10;;;24.60;97.00;;;;;;4999099;28;20164;-93
2023/07/12 11:53:20;;;;;;;1.20;0.90;;;24.20;96.60;;;;;;5015911;28;20175;-91
2023/07/12 11:55:49;;;;;;;1.45;1.08;;;24.10;97.50;;;;;;4999695;28;20202;-92
2023/07/12 11:58:17;;;;;;;2.15;0.90;;;24.10;96.30;;;;;;4999438;28;20198;-92
2023/07/12 12:00:45;;;;;;;3.45;1.00;;;24.20;98.20;;;;;;4999595;28;20259;-93
2023/07/12 12:03:13;;;;;;;3.83;1.00;;;24.30;95.70;;;;;;4999493;28;20533;-92
2023/07/12 12:05:40;;;;;;;3.90;0.82;;;24.30;97.10;;;;;;4999591;28;20213;-92
2023/07/12 12:08:10;;;;;;;2.33;0.90;;;24.10;96.50;;;;;;4999567;28;20178;-94
2023/07/12 12:10:39;;;;;;;2.13;0.90;;;24.00;97.30;;;;;;4999529;28;20254;-92
2023/07/12 12:13:20;;;;;;;2.47;1.00;;;23.90;96.10;;;;;;4999339;28;20262;-93
2023/07/12 12:15:58;;;;;;;2.20;1.20;;;23.80;98.00;;;;;;4999327;28;20222;-95
2023/07/12 12:18:24;;;;;;;2.42;0.90;;;24.00;99.70;;;;;;4999603;28;20195;-92
2023/07/12 12:21:00;;;;;;;2.00;1.02;;;24.30;98.00;;;;;;4999240;28;20207;-93
2023/07/12 12:23:38;;;;;;;2.83;0.95;;;24.60;97.60;;;;;;5002124;28;20230;-96
2023/07/12 12:26:19;;;;;;;0.90;0.80;;;24.90;96.20;;;;;;4999825;28;20219;-93
2023/07/12 12:28:56;;;;;;;2.70;0.90;;;24.80;95.70;;;;;;4998519;28;20202;-93
2023/07/12 12:31:25;;;;;;;1.33;0.80;;;24.90;96.40;;;;;;4998419;28;20171;-91
2023/07/12 12:34:10;;;;;;;5.68;1.15;;;25.20;96.70;;;;;;5016310;28;20254;-93
2023/07/12 12:36:36;;;;;;;2.67;0.82;;;25.60;97.60;;;;;;4998531;28;20197;-93
2023/07/12 12:39:08;;;;;;;3.83;1.02;;;25.60;94.90;;;;;;5000038;28;20639;-92
2023/07/12 12:42:00;;;;;;;2.97;0.95;;;25.30;94.40;;;;;;4999025;28;20540;-93
2023/07/12 12:44:31;;;;;;;3.65;1.13;;;25.20;95.00;;;;;;5001243;28;20227;-91
2023/07/12 12:47:03;;;;;;;4.90;1.10;;;25.10;95.40;;;;;;5000193;28;20226;-94
2023/07/12 12:49:31;;;;;;;2.78;0.98;;;25.40;96.40;;;;;;4999558;28;20159;-93
2023/07/12 12:52:18;;;;;;;6.18;1.15;;;25.50;93.50;;;;;;4998572;28;20206;-93
2023/07/12 12:54:44;;;;;;;3.35;0.90;;;25.40;93.90;;;;;;4998158;28;20203;-93
2023/07/12 12:57:10;;;;;;;3.55;0.90;;;25.50;95.00;;;;;;4997636;28;20190;-92
2023/07/12 12:59:36;;;;;;;2.15;1.00;;;25.70;94.40;;;;;;4998579;28;20168;-93
2023/07/12 13:02:01;;;;;;;1.70;0.88;;;25.90;93.30;;;;;;4999058;28;20171;-92